Time;durP1;ratioP1;P1;durP2;ratioP2;P2;SDS_P1;SDS_P2;PMS_P1;PMS_P2;Temp;Humidity;BMP_temperature;BMP_pressure;BME280_temperature;BME280_humidity;BME280_pressure;Samples;Min_cycle;Max_cycle;Signal;HPM_P1;HPM_P2
2021/08/02 00:00:24;;;;;;;24.10;13.05;;;;;;;22.13;100.00;98305.39;1753038;81;21406;-70
2021/08/02 00:03:13;;;;;;;18.67;12.68;;;;;;;22.13;100.00;98298.67;1721628;81;21030;-70
2021/08/02 00:05:45;;;;;;;16.52;12.25;;;;;;;22.11;100.00;98287.17;1720992;81;21431;-69
2021/08/02 00:08:21;;;;;;;50.58;14.23;;;;;;;22.03;100.00;98285.45;1726481;81;21765;-68
2021/08/02 00:10:51;;;;;;;20.52;13.43;;;;;;;21.92;100.00;98280.31;1755221;81;21533;-68
2021/08/02 00:13:31;;;;;;;15.90;11.55;;;;;;;21.78;100.00;98273.64;1727854;81;21490;-69
2021/08/02 00:16:04;;;;;;;14.70;11.00;;;;;;;21.68;100.00;98267.98;1744256;81;21494;-69
2021/08/02 00:18:32;;;;;;;16.57;11.80;;;;;;;21.58;100.00;98264.17;1727692;81;21070;-69
2021/08/02 00:21:05;;;;;;;16.25;11.40;;;;;;;21.55;100.00;98264.38;1730790;81;21610;-69
2021/08/02 00:23:34;;;;;;;17.42;11.85;;;;;;;21.57;100.00;98245.01;1753797;81;21532;-69
2021/08/02 00:26:04;;;;;;;15.78;11.43;;;;;;;21.58;100.00;98241.84;1728010;81;20984;-69
2021/08/02 00:28:36;;;;;;;16.65;11.85;;;;;;;21.60;100.00;98234.55;1718920;83;21627;-69
2021/08/02 00:31:05;;;;;;;16.35;12.10;;;;;;;21.58;100.00;98230.63;1750972;81;21547;-69
2021/08/02 00:33:33;;;;;;;15.75;11.95;;;;;;;21.52;100.00;98220.30;1757825;81;21819;-69
2021/08/02 00:36:11;;;;;;;17.60;12.90;;;;;;;21.45;100.00;98222.14;1755631;81;21433;-69
2021/08/02 00:38:49;;;;;;;36.73;13.45;;;;;;;21.41;100.00;98218.80;1746104;81;20875;-69
2021/08/02 00:41:20;;;;;;;17.35;13.60;;;;;;;21.41;100.00;98221.48;1759827;81;20936;-69
2021/08/02 00:44:01;;;;;;;20.90;14.63;;;;;;;21.46;100.00;98219.84;1709797;83;21569;-70
2021/08/02 00:46:34;;;;;;;23.65;15.38;;;;;;;21.49;100.00;98225.86;1725172;82;21205;-70
2021/08/02 00:49:06;;;;;;;19.17;15.58;;;;;;;21.54;100.00;98229.59;1739905;81;20867;-70
2021/08/02 00:51:41;;;;;;;22.82;15.53;;;;;;;21.61;100.00;98233.11;1732632;81;21578;-71
2021/08/02 00:54:10;;;;;;;19.02;15.03;;;;;;;21.61;100.00;98230.91;1745188;81;21062;-70
2021/08/02 00:56:39;;;;;;;22.58;15.48;;;;;;;21.56;100.00;98232.55;1759686;81;21583;-69
2021/08/02 00:59:09;;;;;;;24.98;16.42;;;;;;;21.56;100.00;98245.11;1738621;81;21150;-70
2021/08/02 01:01:39;;;;;;;23.38;14.83;;;;;;;21.57;100.00;98262.94;1735758;81;21009;-66
2021/08/02 01:04:08;;;;;;;25.75;15.93;;;;;;;21.66;100.00;98281.13;1701546;82;21593;-64
2021/08/02 01:06:39;;;;;;;21.23;15.55;;;;;;;21.78;100.00;98288.89;1735843;81;21559;-64
2021/08/02 01:09:11;;;;;;;23.45;15.53;;;;;;;21.86;100.00;98296.82;1732559;81;21575;-62
2021/08/02 01:11:40;;;;;;;19.85;14.70;;;;;;;21.97;100.00;98299.66;1708535;82;21553;-62
2021/08/02 01:14:10;;;;;;;18.60;14.78;;;;;;;22.10;100.00;98293.52;1730746;81;21605;-61
2021/08/02 01:16:41;;;;;;;20.40;15.10;;;;;;;22.21;100.00;98284.25;1743927;81;21595;-62
2021/08/02 01:19:11;;;;;;;22.60;16.23;;;;;;;22.28;100.00;98275.70;1727603;81;21616;-62
2021/08/02 01:21:42;;;;;;;31.25;16.70;;;;;;;22.34;100.00;98278.46;1748968;81;21031;-64
2021/08/02 01:24:17;;;;;;;26.12;16.93;;;;;;;22.40;100.00;98277.19;1749601;82;21108;-64
2021/08/02 01:26:51;;;;;;;25.88;15.18;;;;;;;22.47;100.00;98292.78;1737126;81;21565;-66
2021/08/02 01:29:58;;;;;;;33.35;14.63;;;;;;;22.55;100.00;98309.25;1742152;81;21077;-64
2021/08/02 01:32:26;;;;;;;19.82;14.25;;;;;;;22.62;100.00;98339.27;1704352;82;20938;-64
2021/08/02 01:34:59;;;;;;;16.40;12.30;;;;;;;22.71;100.00;98371.41;1734143;81;21053;-64
2021/08/02 01:37:30;;;;;;;17.73;10.68;;;;;;;22.77;100.00;98362.45;1732347;82;21129;-64
2021/08/02 01:40:00;;;;;;;11.08;9.83;;;;;;;22.83;100.00;98345.06;1690077;83;28580;-64
2021/08/02 01:42:30;;;;;;;11.18;9.60;;;;;;;22.90;100.00;98347.70;1709916;82;21010;-62
2021/08/02 01:45:03;;;;;;;11.08;9.63;;;;;;;22.98;100.00;98341.80;1711711;82;21553;-62
2021/08/02 01:47:36;;;;;;;;;;;;;;;23.02;100.00;98333.41;1733856;82;20983;-61
2021/08/02 01:50:17;;;;;;;11.80;8.20;;;;;;;23.09;100.00;98326.63;1726134;82;21139;-62
2021/08/02 01:52:57;;;;;;;11.12;8.55;;;;;;;23.14;100.00;98332.55;1726755;83;20991;-61
2021/08/02 01:55:26;;;;;;;14.03;9.48;;;;;;;23.17;100.00;98336.37;1726242;82;21022;-61
2021/08/02 01:58:07;;;;;;;11.73;8.68;;;;;;;23.20;100.00;98337.53;1718815;83;20948;-61
2021/08/02 02:00:55;;;;;;;11.30;9.25;;;;;;;23.22;100.00;98326.17;1735302;81;20899;-61
2021/08/02 02:03:25;;;;;;;10.93;9.13;;;;;;;23.27;100.00;98320.95;1729525;82;21121;-61
2021/08/02 02:06:02;;;;;;;9.93;7.67;;;;;;;23.30;100.00;98310.83;1726242;80;20892;-61
2021/08/02 02:08:42;;;;;;;9.65;8.25;;;;;;;23.35;100.00;98298.39;1763033;80;21480;-61
2021/08/02 02:11:16;;;;;;;11.22;9.15;;;;;;;23.40;100.00;98276.05;1759485;80;21579;-61
2021/08/02 02:13:56;;;;;;;15.35;8.88;;;;;;;23.43;100.00;98271.30;1744441;80;21581;-61
2021/08/02 02:16:25;;;;;;;13.65;9.10;;;;;;;23.46;100.00;98260.80;1731904;81;21446;-62
2021/08/02 02:18:55;;;;;;;13.18;7.87;;;;;;;23.50;100.00;98262.30;1748692;81;21569;-62
2021/08/02 02:21:26;;;;;;;10.93;8.83;;;;;;;23.51;100.00;98268.05;1702753;81;21635;-62
2021/08/02 02:23:56;;;;;;;14.85;9.35;;;;;;;23.47;100.00;98275.98;1738320;81;21493;-62
2021/08/02 02:26:27;;;;;;;16.12;9.13;;;;;;;23.38;100.00;98283.38;1734594;81;21026;-62
2021/08/02 02:29:04;;;;;;;13.98;9.38;;;;;;;23.31;100.00;98277.57;1713527;82;21441;-62
2021/08/02 02:31:34;;;;;;;8.88;7.97;;;;;;;23.31;100.00;98259.22;1692068;81;20903;-62
2021/08/02 02:34:04;;;;;;;12.23;8.30;;;;;;;23.31;100.00;98257.39;1737853;80;20973;-62
2021/08/02 02:36:34;;;;;;;13.70;8.65;;;;;;;23.34;100.00;98240.16;1711490;80;20993;-63
2021/08/02 02:39:04;;;;;;;12.85;8.28;;;;;;;23.37;100.00;98227.83;1729230;82;21007;-63
2021/08/02 02:41:33;;;;;;;11.95;8.65;;;;;;;23.36;100.00;98233.70;1697700;83;21412;-62
2021/08/02 02:44:02;;;;;;;10.78;8.10;;;;;;;23.26;100.00;98248.78;1753042;81;20923;-63
2021/08/02 02:46:30;;;;;;;10.88;8.05;;;;;;;23.21;100.00;98262.57;1739784;81;20970;-63
2021/08/02 02:48:59;;;;;;;9.73;8.58;;;;;;;23.18;100.00;98260.10;1726534;82;21008;-62
2021/08/02 02:51:28;;;;;;;11.73;8.73;;;;;;;23.10;100.00;98263.79;1705789;81;21027;-63
2021/08/02 02:53:59;;;;;;;14.13;8.20;;;;;;;23.00;100.00;98267.24;1698445;83;21057;-62
2021/08/02 02:56:28;;;;;;;17.30;9.08;;;;;;;23.00;100.00;98266.76;1738207;81;21026;-63
2021/08/02 02:58:56;;;;;;;31.50;9.68;;;;;;;23.07;100.00;98265.84;1679136;83;21414;-63
2021/08/02 20:39:19;;;;;;;1.70;1.20;;;;;;;24.32;100.00;98560.83;1800520;78;22332;-68
2021/08/02 20:41:48;;;;;;;3.47;1.37;;;;;;;24.25;100.00;98557.30;1773975;80;21458;-68
2021/08/02 20:44:20;;;;;;;4.65;1.60;;;;;;;24.23;100.00;98553.84;1774036;81;21136;-68
2021/08/02 20:46:49;;;;;;;7.53;1.70;;;;;;;24.21;100.00;98566.56;1772954;80;21015;-68
2021/08/02 20:49:22;;;;;;;6.25;2.00;;;;;;;24.22;100.00;98569.64;1769473;79;21002;-68
2021/08/02 20:51:50;;;;;;;6.50;1.80;;;;;;;24.21;100.00;98557.13;1773734;79;20978;-67
2021/08/02 20:54:19;;;;;;;16.23;2.08;;;;;;;24.20;100.00;98558.11;1776542;79;21464;-67
2021/08/02 20:56:48;;;;;;;13.85;1.90;;;;;;;24.17;100.00;98566.78;1774916;79;21124;-66
2021/08/02 20:59:17;;;;;;;6.12;2.17;;;;;;;24.13;100.00;98580.09;1771791;79;20863;-67
2021/08/02 21:01:55;;;;;;;3.85;2.05;;;;;;;24.09;100.00;98590.69;1771527;79;21430;-67
2021/08/02 21:04:32;;;;;;;4.60;2.22;;;;;;;24.04;100.00;98583.89;1773900;81;20872;-66
2021/08/02 21:07:08;;;;;;;3.60;1.90;;;;;;;23.97;100.00;98590.20;1774161;80;20963;-66
2021/08/02 21:09:42;;;;;;;2.83;1.90;;;;;;;23.92;100.00;98600.42;1773868;80;21001;-67
2021/08/02 21:12:13;;;;;;;4.37;1.90;;;;;;;23.84;100.00;98600.09;1726292;81;21085;-67
2021/08/02 21:14:46;;;;;;;5.30;2.10;;;;;;;23.79;100.00;98601.77;1714566;83;20936;-68
2021/08/02 21:17:19;;;;;;;3.58;2.00;;;;;;;23.76;100.00;98606.01;1719179;83;21525;-68
2021/08/02 21:19:49;;;;;;;7.58;2.33;;;;;;;23.75;100.00;98612.36;1719122;82;21447;-69
2021/08/02 21:22:18;;;;;;;3.35;2.02;;;;;;;23.74;100.00;98623.24;1719352;83;21135;-68
2021/08/02 21:24:49;;;;;;;6.87;2.27;;;;;;;23.68;100.00;98617.79;1719251;82;21424;-69
2021/08/02 21:27:22;;;;;;;3.05;2.02;;;;;;;23.64;100.00;98626.15;1719380;83;20936;-69
2021/08/02 21:29:51;;;;;;;6.28;2.05;;;;;;;23.59;100.00;98630.98;1719122;83;20861;-69
2021/08/02 21:32:19;;;;;;;9.20;2.30;;;;;;;23.57;100.00;98637.81;1720866;83;20941;-69
2021/08/02 21:34:48;;;;;;;2.50;2.17;;;;;;;23.52;100.00;98629.16;1720409;83;21552;-68
2021/08/02 21:37:17;;;;;;;9.33;2.00;;;;;;;23.47;100.00;98631.29;1721254;83;21549;-68
2021/08/02 21:39:45;;;;;;;2.65;2.08;;;;;;;23.43;100.00;98636.50;1704778;84;20960;-67
2021/08/02 21:42:13;;;;;;;5.17;2.15;;;;;;;23.36;100.00;98633.83;1709360;83;20991;-68
2021/08/02 21:44:41;;;;;;;4.47;2.55;;;;;;;23.30;100.00;98638.27;1710949;83;21044;-69
2021/08/02 21:47:10;;;;;;;6.37;2.15;;;;;;;23.21;100.00;98644.64;1711043;83;21173;-69
2021/08/02 21:49:40;;;;;;;3.30;2.08;;;;;;;23.17;100.00;98644.43;1710975;83;21065;-67
2021/08/02 21:52:08;;;;;;;4.58;2.12;;;;;;;23.11;100.00;98647.52;1707339;83;20937;-67
2021/08/02 21:54:38;;;;;;;2.80;2.10;;;;;;;23.07;100.00;98643.30;1704634;83;21693;-67
2021/08/02 21:57:08;;;;;;;8.15;2.45;;;;;;;23.02;100.00;98648.12;1702510;84;21412;-67
2021/08/02 21:59:37;;;;;;;2.52;2.05;;;;;;;22.97;100.00;98646.21;1704259;84;21144;-67
2021/08/02 22:02:06;;;;;;;5.33;1.80;;;;;;;22.94;100.00;98639.69;1705416;83;21892;-67
2021/08/02 22:04:34;;;;;;;4.95;2.15;;;;;;;22.86;100.00;98633.45;1681773;83;20952;-66
2021/08/02 22:07:03;;;;;;;7.95;2.40;;;;;;;22.79;100.00;98636.61;1704621;84;20984;-67
2021/08/02 22:09:33;;;;;;;4.28;1.95;;;;;;;22.74;100.00;98629.31;1704319;84;20941;-66
2021/08/02 22:12:04;;;;;;;4.47;1.85;;;;;;;22.68;100.00;98625.16;1710193;83;21479;-67
2021/08/02 22:14:32;;;;;;;5.70;1.80;;;;;;;22.62;100.00;98626.41;1713441;83;20956;-65
2021/08/02 22:17:01;;;;;;;3.62;1.90;;;;;;;22.58;100.00;98620.85;1711803;83;21011;-65
2021/08/02 22:19:29;;;;;;;6.00;1.90;;;;;;;22.57;100.00;98628.53;1708321;83;21047;-66
2021/08/02 22:21:57;;;;;;;6.53;1.90;;;;;;;22.54;100.00;98630.55;1709454;83;20904;-65
2021/08/02 22:24:26;;;;;;;5.22;2.00;;;;;;;22.51;100.00;98638.33;1711066;83;21419;-65
2021/08/02 22:26:55;;;;;;;3.20;2.00;;;;;;;22.49;100.00;98656.85;1710969;83;21424;-65
2021/08/02 22:29:23;;;;;;;1.72;1.62;;;;;;;22.45;100.00;98674.13;1707373;83;20961;-65
2021/08/02 22:31:53;;;;;;;7.00;1.80;;;;;;;22.44;100.00;98681.81;1704474;84;21428;-65
2021/08/02 22:34:21;;;;;;;3.60;2.12;;;;;;;22.41;100.00;98683.34;1704212;84;21574;-65
2021/08/02 22:36:52;;;;;;;3.00;2.00;;;;;;;22.38;100.00;98680.84;1708603;83;21534;-65
2021/08/02 22:39:21;;;;;;;3.92;2.00;;;;;;;22.35;100.00;98677.00;1716941;83;21636;-66
2021/08/02 22:41:52;;;;;;;2.33;1.60;;;;;;;22.33;100.00;98681.13;1701279;83;21530;-66
2021/08/02 22:44:21;;;;;;;2.52;1.98;;;;;;;22.30;100.00;98685.34;1701463;84;21598;-65
2021/08/02 22:46:50;;;;;;;2.80;2.00;;;;;;;22.28;100.00;98688.61;1699423;84;20992;-66
2021/08/02 22:49:20;;;;;;;6.08;2.20;;;;;;;22.25;100.00;98692.34;1688114;84;21566;-67
2021/08/02 22:51:49;;;;;;;2.35;1.90;;;;;;;22.24;100.00;98700.49;1703724;82;20956;-67
2021/08/02 22:54:18;;;;;;;3.17;1.92;;;;;;;22.23;100.00;98705.45;1708531;82;21411;-67
2021/08/02 22:56:47;;;;;;;3.20;1.82;;;;;;;22.21;100.00;98712.73;1706932;82;20909;-65
2021/08/02 22:59:21;;;;;;;2.67;1.92;;;;;;;22.18;100.00;98711.58;1708586;82;20869;-63
2021/08/02 23:01:51;;;;;;;5.00;1.98;;;;;;;22.15;100.00;98709.95;1708520;84;22003;-64
2021/08/02 23:04:20;;;;;;;3.90;1.90;;;;;;;22.12;100.00;98701.20;1708513;82;21039;-63
2021/08/02 23:06:54;;;;;;;5.00;2.37;;;;;;;22.09;100.00;98704.94;1702251;82;21624;-63
2021/08/02 23:09:23;;;;;;;4.35;1.75;;;;;;;22.07;100.00;98705.98;1768468;81;21039;-64
2021/08/02 23:11:52;;;;;;;4.15;1.82;;;;;;;22.02;100.00;98706.23;1768166;80;20975;-64
2021/08/02 23:14:21;;;;;;;2.60;1.50;;;;;;;22.00;100.00;98710.83;1768185;80;21562;-64
2021/08/02 23:16:50;;;;;;;3.85;1.70;;;;;;;22.00;100.00;98713.52;1767945;79;20994;-64
2021/08/02 23:19:18;;;;;;;1.98;1.60;;;;;;;21.98;100.00;98716.77;1768423;80;20864;-64
2021/08/02 23:21:48;;;;;;;3.25;1.80;;;;;;;21.95;100.00;98716.48;1767800;79;20856;-64
2021/08/02 23:24:17;;;;;;;2.10;1.77;;;;;;;21.90;100.00;98707.83;1727582;79;21030;-65
2021/08/02 23:26:46;;;;;;;2.60;1.87;;;;;;;21.88;100.00;98700.34;1768135;79;21359;-65
2021/08/02 23:29:15;;;;;;;3.83;1.85;;;;;;;21.84;100.00;98700.14;1744651;81;20923;-65
2021/08/02 23:31:46;;;;;;;2.02;1.80;;;;;;;21.81;100.00;98694.08;1767934;80;20964;-65
2021/08/02 23:34:18;;;;;;;6.03;1.90;;;;;;;21.77;100.00;98690.72;1768388;81;20905;-65
2021/08/02 23:36:46;;;;;;;;;;;;;;;21.73;100.00;98696.32;1771138;79;21038;-65
2021/08/02 23:39:15;;;;;;;2.00;1.80;;;;;;;21.67;100.00;98694.38;1767649;79;21154;-65
2021/08/02 23:41:44;;;;;;;2.40;2.00;;;;;;;21.63;100.00;98691.49;1764928;80;21418;-65
2021/08/02 23:44:13;;;;;;;2.12;1.92;;;;;;;21.60;100.00;98705.09;1765260;79;21466;-65
2021/08/02 23:46:42;;;;;;;3.25;1.90;;;;;;;21.56;100.00;98708.04;1760014;80;20912;-65
2021/08/02 23:49:11;;;;;;;3.87;1.87;;;;;;;21.53;100.00;98708.22;1760046;80;20958;-65
2021/08/02 23:51:40;;;;;;;2.70;1.70;;;;;;;21.50;100.00;98708.39;1760504;80;21540;-65
2021/08/02 23:54:09;;;;;;;2.75;1.90;;;;;;;21.51;100.00;98714.15;1765343;79;21434;-65
2021/08/02 23:56:37;;;;;;;2.42;1.90;;;;;;;21.48;100.00;98710.30;1765707;79;20911;-65
2021/08/02 23:59:05;;;;;;;1.90;1.80;;;;;;;21.45;100.00;98713.16;1737938;80;20844;-65
